createdAt,value
2018-02-25T00:00:29.001Z,91269.28
2018-02-25T00:01:18.059Z,91277.27
2018-02-25T00:02:07.152Z,91272.38
2018-02-25T00:02:56.229Z,91276.99
2018-02-25T00:03:45.507Z,91276.16
2018-02-25T00:04:34.567Z,91280.15
2018-02-25T00:05:23.635Z,91275.02
2018-02-25T00:06:12.746Z,91280.50
2018-02-25T00:07:01.865Z,91280.23
2018-02-25T00:07:50.912Z,91279.70
2018-02-25T00:08:39.966Z,91282.53
2018-02-25T00:09:28.998Z,91288.29
2018-02-25T00:10:18.054Z,91285.86
2018-02-25T00:11:07.220Z,91286.33
2018-02-25T00:11:56.250Z,91291.83
2018-02-25T00:12:45.349Z,91288.91
2018-02-25T00:13:34.366Z,91295.38
2018-02-25T00:14:23.429Z,91286.44
2018-02-25T00:15:12.482Z,91294.31
2018-02-25T00:16:01.538Z,91293.25
2018-02-25T00:16:50.617Z,91284.22
2018-02-25T00:17:39.659Z,91294.31
2018-02-25T00:18:28.702Z,91293.61
2018-02-25T00:19:17.730Z,91291.57
2018-02-25T00:20:06.785Z,91291.75
2018-02-25T00:20:55.836Z,91294.58
2018-02-25T00:21:44.918Z,91298.47
2018-02-25T00:22:34.206Z,91295.20
2018-02-25T00:23:23.240Z,91297.69
2018-02-25T00:24:12.300Z,91294.75
2018-02-25T00:25:01.343Z,91296.00
2018-02-25T00:25:50.378Z,91301.93
2018-02-25T00:26:39.433Z,91299.89
2018-02-25T00:27:28.568Z,91293.78
2018-02-25T00:28:17.632Z,91296.09
2018-02-25T00:29:06.680Z,91304.05
2018-02-25T00:29:55.731Z,91300.17
2018-02-25T00:30:44.813Z,91302.45
2018-02-25T00:31:33.877Z,91298.92
2018-02-25T00:32:22.941Z,91307.25
2018-02-25T00:33:12.043Z,91298.81
2018-02-25T00:34:01.082Z,91301.14
2018-02-25T00:34:50.140Z,91305.19
2018-02-25T00:35:39.202Z,91301.13
2018-02-25T00:36:28.261Z,91302.27
2018-02-25T00:37:17.340Z,91301.91
2018-02-25T00:38:06.416Z,91290.14
2018-02-25T00:38:55.457Z,91299.88
2018-02-25T00:39:44.491Z,91300.40
2018-02-25T00:40:33.551Z,91299.09
2018-02-25T00:41:25.564Z,91297.50
2018-02-25T00:42:14.616Z,91302.71
2018-02-25T00:43:03.676Z,91300.42
2018-02-25T00:43:52.820Z,91298.22
2018-02-25T00:44:41.893Z,91304.84
2018-02-25T00:45:31.006Z,91297.52
2018-02-25T00:46:20.073Z,91299.45
2018-02-25T00:47:09.198Z,91299.90
2018-02-25T00:47:58.216Z,91304.30
2018-02-25T00:48:47.252Z,91303.60
2018-02-25T00:49:36.339Z,91302.80
2018-02-25T00:50:25.397Z,91299.27
2018-02-25T00:51:14.450Z,91300.77
2018-02-25T00:52:03.513Z,91307.50
2018-02-25T00:52:52.555Z,91303.36
2018-02-25T00:53:41.602Z,91305.20
2018-02-25T00:54:30.661Z,91301.14
2018-02-25T00:55:19.750Z,91300.43
2018-02-25T00:56:08.797Z,91307.05
2018-02-25T00:56:57.866Z,91310.69
2018-02-25T00:57:46.916Z,91302.02
2018-02-25T00:58:35.958Z,91303.34
2018-02-25T00:59:25.129Z,91296.95
2018-02-25T01:00:14.231Z,91301.03
2018-02-25T01:01:03.642Z,91299.53
2018-02-25T01:01:52.679Z,91308.48
2018-02-25T01:02:41.728Z,91305.29
2018-02-25T01:03:30.771Z,91305.63
2018-02-25T01:04:19.824Z,91310.48
2018-02-25T01:05:08.929Z,91302.08
2018-02-25T01:05:57.980Z,91305.08
2018-02-25T01:06:47.026Z,91308.19
2018-02-25T01:07:36.080Z,91304.20
2018-02-25T01:08:25.157Z,91300.57
2018-02-25T01:09:14.199Z,91303.13
2018-02-25T01:10:03.250Z,91305.40
2018-02-25T01:10:52.348Z,91303.55
2018-02-25T01:11:41.392Z,91300.92
2018-02-25T01:12:30.448Z,91301.59
2018-02-25T01:13:19.488Z,91306.54
2018-02-25T01:14:08.531Z,91301.77
2018-02-25T01:14:57.616Z,91300.17
2018-02-25T01:15:46.706Z,91295.88
2018-02-25T01:16:35.769Z,91296.49
2018-02-25T01:17:24.813Z,91301.97
2018-02-25T01:18:13.860Z,91305.42
2018-02-25T01:19:02.919Z,91301.34
2018-02-25T01:19:51.994Z,91298.43
2018-02-25T01:20:41.040Z,91302.84
2018-02-25T01:21:30.179Z,91303.33
2018-02-25T01:22:19.232Z,91303.25
2018-02-25T01:23:08.282Z,91301.22
2018-02-25T01:23:57.324Z,91305.21
2018-02-25T01:24:46.423Z,91307.34
2018-02-25T01:25:35.462Z,91315.66
2018-02-25T01:26:24.518Z,91308.78
2018-02-25T01:27:13.624Z,91307.41
2018-02-25T01:28:02.673Z,91309.95
2018-02-25T01:28:51.725Z,91307.74
2018-02-25T01:29:40.764Z,91311.27
2018-02-25T01:30:29.813Z,91306.30
2018-02-25T01:31:18.872Z,91308.17
2018-02-25T01:32:07.970Z,91315.45
2018-02-25T01:32:57.075Z,91314.04
2018-02-25T01:33:46.107Z,91312.52
2018-02-25T01:34:35.137Z,91314.11
2018-02-25T01:35:24.183Z,91318.98
2018-02-25T01:36:13.226Z,91313.90
2018-02-25T01:37:02.276Z,91313.19
2018-02-25T01:37:51.321Z,91311.52
2018-02-25T01:38:40.690Z,91311.20
2018-02-25T01:39:29.718Z,91312.14
2018-02-25T01:40:18.769Z,91311.27
2018-02-25T01:41:07.811Z,91311.41
2018-02-25T01:41:56.853Z,91320.22
2018-02-25T01:42:45.917Z,91308.45
2018-02-25T01:43:35.024Z,91316.41
2018-02-25T01:44:24.099Z,91311.80
2018-02-25T01:45:13.134Z,91314.43
2018-02-25T01:46:02.171Z,91313.73
2018-02-25T01:46:51.220Z,91314.47
2018-02-25T01:47:40.269Z,91317.94
2018-02-25T01:48:29.308Z,91314.71
2018-02-25T01:49:18.415Z,91318.25
2018-02-25T01:50:07.459Z,91316.15
2018-02-25T01:51:05.294Z,91315.80
2018-02-25T01:51:54.343Z,91318.69
2018-02-25T01:52:43.558Z,91308.72
2018-02-25T01:53:32.605Z,91310.84
2018-02-25T01:54:21.667Z,91305.06
2018-02-25T01:55:10.712Z,91309.45
2018-02-25T01:55:59.760Z,91314.02
2018-02-25T01:56:48.826Z,91311.93
2018-02-25T01:57:37.859Z,91311.42
2018-02-25T01:58:29.985Z,91308.92
2018-02-25T01:59:19.036Z,91311.21
2018-02-25T02:00:08.115Z,91309.04
2018-02-25T02:00:57.182Z,91312.86
2018-02-25T02:01:46.224Z,91305.23
2018-02-25T02:02:35.271Z,91307.80
2018-02-25T02:03:24.350Z,91310.18
2018-02-25T02:04:13.455Z,91307.25
2018-02-25T02:05:02.505Z,91311.52
2018-02-25T02:05:51.556Z,91312.23
2018-02-25T02:06:40.672Z,91312.36
2018-02-25T02:07:29.728Z,91313.09
2018-02-25T02:08:18.783Z,91310.75
2018-02-25T02:09:07.831Z,91314.84
2018-02-25T02:09:56.866Z,91309.82
2018-02-25T02:10:45.913Z,91318.34
2018-02-25T02:11:34.972Z,91312.88
2018-02-25T02:12:24.100Z,91310.80
2018-02-25T02:13:13.156Z,91313.16
2018-02-25T02:14:02.199Z,91313.48
2018-02-25T02:14:51.238Z,91312.71
2018-02-25T02:15:40.293Z,91314.11
2018-02-25T02:16:29.358Z,91307.41
2018-02-25T02:17:18.506Z,91316.67
2018-02-25T02:18:07.550Z,91314.51
2018-02-25T02:18:56.581Z,91313.31
2018-02-25T02:19:45.620Z,91313.14
2018-02-25T02:20:34.698Z,91321.69
2018-02-25T02:21:23.762Z,91313.95
2018-02-25T02:22:12.811Z,91313.53
2018-02-25T02:23:02.081Z,91315.06
2018-02-25T02:23:51.143Z,91318.28
2018-02-25T02:24:40.205Z,91313.31
2018-02-25T02:25:29.261Z,91313.33
2018-02-25T02:26:18.311Z,91312.56
2018-02-25T02:27:07.350Z,91317.61
2018-02-25T02:27:56.455Z,91317.17
2018-02-25T02:28:45.561Z,91316.43
2018-02-25T02:29:34.619Z,91316.30
2018-02-25T02:30:23.676Z,91319.45
2018-02-25T02:31:12.801Z,91321.48
2018-02-25T02:32:01.852Z,91322.11
2018-02-25T02:32:50.929Z,91321.19
2018-02-25T02:33:39.972Z,91316.59
2018-02-25T02:34:29.071Z,91316.59
2018-02-25T02:35:18.120Z,91319.41
2018-02-25T02:36:07.167Z,91310.44
2018-02-25T02:36:56.260Z,91308.77
2018-02-25T02:37:45.323Z,91314.28
2018-02-25T02:38:34.371Z,91314.60
2018-02-25T02:39:23.433Z,91320.99
2018-02-25T02:40:12.499Z,91316.73
2018-02-25T02:41:01.578Z,91317.92
2018-02-25T02:41:50.978Z,91317.38
2018-02-25T02:42:40.034Z,91314.91
2018-02-25T02:43:29.086Z,91313.19
2018-02-25T02:44:18.285Z,91318.42
2018-02-25T02:45:07.344Z,91311.86
2018-02-25T02:45:56.405Z,91319.00
2018-02-25T02:46:45.452Z,91320.66
2018-02-25T02:47:34.513Z,91319.63
2018-02-25T02:48:23.556Z,91313.52
2018-02-25T02:49:12.615Z,91318.13
2018-02-25T02:50:01.711Z,91311.30
2018-02-25T02:50:50.768Z,91320.59
2018-02-25T02:51:39.865Z,91313.00
2018-02-25T02:52:28.906Z,91317.98
2018-02-25T02:53:17.973Z,91313.73
2018-02-25T02:54:07.089Z,91324.33
2018-02-25T02:54:56.162Z,91312.30
2018-02-25T02:55:45.214Z,91318.96
2018-02-25T02:56:34.427Z,91315.84
2018-02-25T02:57:23.698Z,91314.63
2018-02-25T02:58:12.748Z,91313.84
2018-02-25T02:59:01.801Z,91313.92
2018-02-25T02:59:50.843Z,91318.61
2018-02-25T03:00:39.916Z,91312.97
2018-02-25T03:01:29.020Z,91312.73
2018-02-25T03:02:18.066Z,91310.45
2018-02-25T03:03:07.176Z,91313.31
2018-02-25T03:03:56.244Z,91310.33
2018-02-25T03:04:45.483Z,91309.42
2018-02-25T03:05:34.531Z,91314.28
2018-02-25T03:06:23.573Z,91315.74
2018-02-25T03:07:12.639Z,91312.91
2018-02-25T03:08:01.696Z,91315.70
2018-02-25T03:08:50.749Z,91319.79
2018-02-25T03:09:39.797Z,91317.14
2018-02-25T03:10:28.895Z,91310.30
2018-02-25T03:11:17.953Z,91314.11
2018-02-25T03:12:06.985Z,91312.17
2018-02-25T03:12:56.064Z,91311.37
2018-02-25T03:13:45.127Z,91308.74
2018-02-25T03:14:34.173Z,91313.64
2018-02-25T03:15:23.245Z,91313.90
2018-02-25T03:16:12.313Z,91314.88
2018-02-25T03:17:01.358Z,91311.31
2018-02-25T03:17:50.411Z,91313.33
2018-02-25T03:18:39.494Z,91318.90
2018-02-25T03:19:28.535Z,91313.06
2018-02-25T03:20:17.587Z,91315.72
2018-02-25T03:21:06.657Z,91318.53
2018-02-25T03:21:55.727Z,91316.11
2018-02-25T03:22:44.770Z,91314.33
2018-02-25T03:23:33.820Z,91322.05
2018-02-25T03:24:22.973Z,91321.81
2018-02-25T03:25:12.031Z,91319.69
2018-02-25T03:26:01.080Z,91320.97
2018-02-25T03:26:50.114Z,91326.49
2018-02-25T03:27:39.161Z,91322.33
2018-02-25T03:28:28.219Z,91331.14
2018-02-25T03:29:17.299Z,91322.62
2018-02-25T03:30:07.364Z,91318.72
2018-02-25T03:30:56.414Z,91327.27
2018-02-25T03:31:45.449Z,91322.72
2018-02-25T03:32:34.537Z,91334.56
2018-02-25T03:33:23.587Z,91328.79
2018-02-25T03:34:12.678Z,91331.21
2018-02-25T03:35:01.724Z,91334.86
2018-02-25T03:35:50.780Z,91330.37
2018-02-25T03:36:39.835Z,91325.81
2018-02-25T03:37:28.889Z,91330.40
2018-02-25T03:38:17.968Z,91330.85
2018-02-25T03:39:07.006Z,91329.69
2018-02-25T03:39:56.062Z,91332.78
2018-02-25T03:40:45.111Z,91328.75
2018-02-25T03:41:34.161Z,91329.88
2018-02-25T03:42:23.282Z,91333.95
2018-02-25T03:43:12.333Z,91329.50
2018-02-25T03:44:01.391Z,91327.72
2018-02-25T03:44:50.437Z,91327.91
2018-02-25T03:45:39.484Z,91333.56
2018-02-25T03:46:28.715Z,91333.34
2018-02-25T03:47:17.757Z,91332.38
2018-02-25T03:48:07.082Z,91335.79
2018-02-25T03:48:56.138Z,91337.11
2018-02-25T03:49:45.190Z,91340.15
2018-02-25T03:50:34.245Z,91336.77
2018-02-25T03:51:23.296Z,91331.30
2018-02-25T03:52:12.376Z,91337.25
2018-02-25T03:53:01.411Z,91333.66
2018-02-25T03:53:50.439Z,91333.34
2018-02-25T03:54:39.501Z,91332.27
2018-02-25T03:55:28.549Z,91331.21
2018-02-25T03:56:17.658Z,91334.69
2018-02-25T03:57:06.710Z,91335.50
2018-02-25T03:57:55.794Z,91332.63
2018-02-25T03:58:44.835Z,91335.12
2018-02-25T03:59:36.743Z,91335.31
2018-02-25T04:00:25.795Z,91332.24
2018-02-25T04:01:14.850Z,91331.27
2018-02-25T04:02:04.014Z,91334.69
2018-02-25T04:02:53.071Z,91337.73
2018-02-25T04:03:42.418Z,91330.92
2018-02-25T04:04:31.464Z,91336.95
2018-02-25T04:05:20.505Z,91338.66
2018-02-25T04:06:09.575Z,91337.21
2018-02-25T04:06:58.672Z,91336.98
2018-02-25T04:07:47.830Z,91339.77
2018-02-25T04:08:36.890Z,91343.83
2018-02-25T04:09:25.945Z,91340.12
2018-02-25T04:10:14.998Z,91337.21
2018-02-25T04:11:04.047Z,91339.12
2018-02-25T04:11:53.094Z,91335.25
2018-02-25T04:12:42.139Z,91332.27
2018-02-25T04:13:31.230Z,91338.30
2018-02-25T04:14:20.269Z,91334.21
2018-02-25T04:15:09.329Z,91330.98
2018-02-25T04:15:58.378Z,91332.33
2018-02-25T04:16:47.424Z,91337.04
2018-02-25T04:17:36.505Z,91335.66
2018-02-25T04:18:25.557Z,91333.50
2018-02-25T04:19:14.604Z,91335.37
2018-02-25T04:20:03.665Z,91335.79
2018-02-25T04:20:52.745Z,91330.55
2018-02-25T04:21:41.786Z,91334.77
2018-02-25T04:22:30.833Z,91331.41
2018-02-25T04:23:20.132Z,91331.52
2018-02-25T04:24:09.262Z,91336.52
2018-02-25T04:24:58.463Z,91336.97
2018-02-25T04:25:47.513Z,91336.94
2018-02-25T04:26:36.560Z,91340.31
2018-02-25T04:27:25.953Z,91340.50
2018-02-25T04:28:14.991Z,91344.86
2018-02-25T04:29:04.052Z,91344.05
2018-02-25T04:29:53.142Z,91345.73
2018-02-25T04:30:42.180Z,91340.63
2018-02-25T04:31:31.301Z,91344.16
2018-02-25T04:32:20.367Z,91343.64
2018-02-25T04:33:09.495Z,91346.28
2018-02-25T04:33:58.558Z,91344.92
2018-02-25T04:34:47.640Z,91342.28
2018-02-25T04:35:36.689Z,91339.08
2018-02-25T04:36:25.736Z,91335.34
2018-02-25T04:37:14.780Z,91336.69
2018-02-25T04:38:03.833Z,91337.14
2018-02-25T04:38:52.911Z,91337.86
2018-02-25T04:39:41.962Z,91337.38
2018-02-25T04:40:31.008Z,91335.70
2018-02-25T04:41:20.047Z,91343.95
2018-02-25T04:42:09.133Z,91339.41
2018-02-25T04:42:58.183Z,91347.80
2018-02-25T04:43:47.231Z,91344.05
2018-02-25T04:44:36.471Z,91346.22
2018-02-25T04:45:25.510Z,91342.89
2018-02-25T04:46:14.554Z,91342.37
2018-02-25T04:47:03.648Z,91341.89
2018-02-25T04:47:52.694Z,91344.51
2018-02-25T04:48:41.749Z,91336.31
2018-02-25T04:49:30.798Z,91338.02
2018-02-25T04:50:19.851Z,91344.60
2018-02-25T04:51:08.922Z,91333.41
2018-02-25T04:51:57.976Z,91338.38
2018-02-25T04:52:47.135Z,91337.20
2018-02-25T04:53:36.407Z,91332.40
2018-02-25T04:54:25.460Z,91337.98
2018-02-25T04:55:14.514Z,91329.29
2018-02-25T04:56:03.588Z,91329.01
2018-02-25T04:56:52.710Z,91327.87
2018-02-25T04:57:41.757Z,91334.14
2018-02-25T04:58:30.809Z,91335.47
2018-02-25T04:59:19.925Z,91339.70
2018-02-25T05:00:09.011Z,91330.79
2018-02-25T05:00:58.290Z,91331.88
2018-02-25T05:01:47.338Z,91334.02
2018-02-25T05:02:36.394Z,91336.38
2018-02-25T05:03:25.440Z,91335.30
2018-02-25T05:04:14.499Z,91334.63
2018-02-25T05:05:03.546Z,91329.63
2018-02-25T05:05:52.618Z,91331.43
2018-02-25T05:06:41.673Z,91332.47
2018-02-25T05:07:30.724Z,91334.53
2018-02-25T05:08:19.776Z,91335.28
2018-02-25T05:09:08.814Z,91336.86
2018-02-25T05:09:57.864Z,91341.86
2018-02-25T05:10:46.919Z,91343.28
2018-02-25T05:11:36.026Z,91336.59
2018-02-25T05:12:25.082Z,91335.37
2018-02-25T05:13:14.218Z,91338.95
2018-02-25T05:14:03.259Z,91342.56
2018-02-25T05:14:52.305Z,91345.17
2018-02-25T05:15:41.371Z,91338.70
2018-02-25T05:16:30.617Z,91341.97
2018-02-25T05:17:19.659Z,91342.44
2018-02-25T05:18:08.801Z,91343.58
2018-02-25T05:18:57.865Z,91343.86
2018-02-25T05:19:46.925Z,91345.38
2018-02-25T05:20:35.991Z,91344.98
2018-02-25T05:21:25.042Z,91335.47
2018-02-25T05:22:14.114Z,91335.30
2018-02-25T05:23:03.181Z,91335.56
2018-02-25T05:23:52.288Z,91338.90
2018-02-25T05:24:41.338Z,91335.23
2018-02-25T05:25:30.424Z,91336.20
2018-02-25T05:26:19.463Z,91333.95
2018-02-25T05:27:08.507Z,91335.89
2018-02-25T05:27:57.559Z,91339.16
2018-02-25T05:28:46.627Z,91336.67
2018-02-25T05:29:35.680Z,91338.25
2018-02-25T05:30:24.731Z,91338.98
2018-02-25T05:31:13.839Z,91338.10
2018-02-25T05:32:02.918Z,91337.31
2018-02-25T05:32:51.992Z,91336.68
2018-02-25T05:33:41.036Z,91336.21
2018-02-25T05:34:30.083Z,91336.73
2018-02-25T05:35:19.132Z,91337.06
2018-02-25T05:36:08.277Z,91336.00
2018-02-25T05:36:57.337Z,91336.51
2018-02-25T05:38:00.668Z,91335.89
2018-02-25T05:38:49.841Z,91332.05
2018-02-25T05:39:38.951Z,91325.81
2018-02-25T05:40:28.008Z,91330.67
2018-02-25T05:41:17.306Z,91326.11
2018-02-25T05:42:06.362Z,91323.98
2018-02-25T05:42:55.394Z,91321.34
2018-02-25T05:43:44.463Z,91315.84
2018-02-25T05:44:33.521Z,91315.92
2018-02-25T05:45:22.572Z,91315.92
2018-02-25T05:46:11.638Z,91312.40
2018-02-25T05:47:00.717Z,91318.03
2018-02-25T05:47:49.778Z,91319.90
2018-02-25T05:48:38.827Z,91330.73
2018-02-25T05:49:27.909Z,91332.23
2018-02-25T05:50:16.964Z,91338.08
2018-02-25T05:51:06.028Z,91346.22
2018-02-25T05:51:58.146Z,91339.66
2018-02-25T05:52:47.260Z,91345.89
2018-02-25T05:53:36.336Z,91350.77
2018-02-25T05:54:25.390Z,91358.16
2018-02-25T05:55:14.428Z,91356.61
2018-02-25T05:56:03.475Z,91362.45
2018-02-25T05:56:52.512Z,91353.55
2018-02-25T05:57:41.670Z,91356.35
2018-02-25T05:58:30.718Z,91357.54
2018-02-25T05:59:19.764Z,91357.83
2018-02-25T06:00:08.816Z,91357.30
2018-02-25T06:00:57.868Z,91357.63
2018-02-25T06:01:46.918Z,91360.95
2018-02-25T06:02:35.967Z,91360.47
2018-02-25T06:03:25.438Z,91360.94
2018-02-25T06:04:14.565Z,91364.67
2018-02-25T06:05:03.702Z,91365.74
2018-02-25T06:05:52.809Z,91367.15
2018-02-25T06:06:41.866Z,91366.73
2018-02-25T06:07:30.945Z,91368.45
2018-02-25T06:08:20.037Z,91366.66
2018-02-25T06:09:09.130Z,91366.48
2018-02-25T06:09:58.200Z,91368.05
2018-02-25T06:10:47.263Z,91372.35
2018-02-25T06:11:36.337Z,91367.05
2018-02-25T06:12:25.409Z,91368.44
2018-02-25T06:13:14.469Z,91374.50
2018-02-25T06:14:03.575Z,91371.30
2018-02-25T06:14:52.644Z,91372.53
2018-02-25T06:15:41.791Z,91374.14
2018-02-25T06:16:30.842Z,91368.66
2018-02-25T06:17:19.910Z,91378.00
2018-02-25T06:18:08.970Z,91372.94
2018-02-25T06:18:58.053Z,91368.52
2018-02-25T06:19:47.124Z,91371.14
2018-02-25T06:20:36.210Z,91371.82
2018-02-25T06:21:25.476Z,91368.37
2018-02-25T06:22:14.552Z,91372.67
2018-02-25T06:23:03.749Z,91377.97
2018-02-25T06:23:52.826Z,91374.95
2018-02-25T06:24:41.902Z,91383.55
2018-02-25T06:25:30.969Z,91381.02
2018-02-25T06:26:20.020Z,91388.42
2018-02-25T06:27:09.076Z,91383.84
2018-02-25T06:27:58.147Z,91378.67
2018-02-25T06:28:47.269Z,91387.96
2018-02-25T06:29:36.338Z,91396.36
2018-02-25T06:30:25.423Z,91389.53
2018-02-25T06:31:14.478Z,91388.02
2018-02-25T06:32:03.541Z,91388.47
2018-02-25T06:32:52.586Z,91386.34
2018-02-25T06:33:41.642Z,91387.81
2018-02-25T06:34:30.699Z,91384.45
2018-02-25T06:35:19.797Z,91386.59
2018-02-25T06:36:08.956Z,91394.72
2018-02-25T06:36:58.015Z,91390.76
2018-02-25T06:37:47.082Z,91387.76
2018-02-25T06:38:36.140Z,91391.08
2018-02-25T06:39:25.216Z,91389.50
2018-02-25T06:40:14.269Z,91394.89
2018-02-25T06:41:03.317Z,91390.60
2018-02-25T06:41:52.599Z,91394.23
2018-02-25T06:42:41.716Z,91390.45
2018-02-25T06:43:30.804Z,91395.63
2018-02-25T06:44:19.866Z,91394.57
2018-02-25T06:45:08.919Z,91394.44
2018-02-25T06:45:57.991Z,91395.08
2018-02-25T06:46:47.058Z,91395.86
2018-02-25T06:47:36.111Z,91399.45
2018-02-25T06:48:25.375Z,91397.83
2018-02-25T06:49:14.413Z,91398.56
2018-02-25T06:50:03.469Z,91401.16
2018-02-25T06:50:52.524Z,91396.13
2018-02-25T06:51:41.594Z,91395.78
2018-02-25T06:52:30.826Z,91401.05
2018-02-25T06:53:19.879Z,91402.19
2018-02-25T06:54:08.995Z,91400.19
2018-02-25T06:54:58.078Z,91405.77
2018-02-25T06:55:47.173Z,91402.17
2018-02-25T06:56:36.243Z,91402.64
2018-02-25T06:57:25.280Z,91399.11
2018-02-25T06:58:14.322Z,91406.36
2018-02-25T06:59:03.401Z,91406.39
2018-02-25T06:59:52.627Z,91410.77
2018-02-25T07:00:41.692Z,91410.87
2018-02-25T07:01:30.750Z,91409.66
2018-02-25T07:02:20.493Z,91409.85
2018-02-25T07:03:09.538Z,91417.88
2018-02-25T07:03:58.605Z,91410.51
2018-02-25T07:04:47.661Z,91416.11
2018-02-25T07:05:36.762Z,91414.28
2018-02-25T07:06:25.830Z,91419.97
2018-02-25T07:07:14.910Z,91422.20
2018-02-25T07:08:03.960Z,91421.17
2018-02-25T07:08:53.020Z,91421.75
2018-02-25T07:09:42.108Z,91422.05
2018-02-25T07:10:31.191Z,91424.87
2018-02-25T07:11:20.471Z,91424.72
2018-02-25T07:12:09.542Z,91428.91
2018-02-25T07:12:58.773Z,91427.31
2018-02-25T07:13:47.886Z,91435.30
2018-02-25T07:14:37.150Z,91428.69
2018-02-25T07:15:26.246Z,91427.11
2018-02-25T07:16:15.309Z,91427.03
2018-02-25T07:17:04.363Z,91424.80
2018-02-25T07:17:53.425Z,91418.06
2018-02-25T07:18:42.581Z,91429.39
2018-02-25T07:19:31.646Z,91423.49
2018-02-25T07:20:20.695Z,91428.22
2018-02-25T07:21:09.758Z,91420.84
2018-02-25T07:21:58.807Z,91426.79
2018-02-25T07:22:47.859Z,91428.06
2018-02-25T07:23:36.902Z,91425.63
2018-02-25T07:24:25.993Z,91426.19
2018-02-25T07:25:15.061Z,91426.59
2018-02-25T07:26:04.119Z,91420.91
2018-02-25T07:26:53.182Z,91428.38
2018-02-25T07:27:42.244Z,91423.70
2018-02-25T07:28:31.300Z,91428.84
2018-02-25T07:29:20.372Z,91429.45
2018-02-25T07:30:09.952Z,91433.59
2018-02-25T07:30:59.004Z,91428.35
2018-02-25T07:31:48.081Z,91433.21
2018-02-25T07:32:37.143Z,91428.73
2018-02-25T07:33:26.275Z,91426.34
2018-02-25T07:34:15.343Z,91433.92
2018-02-25T07:35:04.406Z,91428.94
2018-02-25T07:35:53.461Z,91431.83
2018-02-25T07:36:42.533Z,91433.56
2018-02-25T07:37:31.578Z,91434.31
2018-02-25T07:38:20.634Z,91436.95
2018-02-25T07:39:09.805Z,91439.13
2018-02-25T07:39:58.903Z,91438.53
2018-02-25T07:40:47.969Z,91436.61
2018-02-25T07:41:37.068Z,91440.73
2018-02-25T07:42:26.251Z,91438.34
2018-02-25T07:43:15.325Z,91442.05
2018-02-25T07:44:04.468Z,91442.20
2018-02-25T07:44:53.579Z,91436.11
2018-02-25T07:45:42.858Z,91435.47
2018-02-25T07:46:31.924Z,91438.82
2018-02-25T07:47:21.005Z,91440.48
2018-02-25T07:48:11.348Z,91441.29
2018-02-25T07:49:00.407Z,91430.97
2018-02-25T07:49:49.509Z,91429.67
2018-02-25T07:50:38.548Z,91426.92
2018-02-25T07:51:27.674Z,91426.92
2018-02-25T07:52:16.774Z,91426.97
2018-02-25T07:53:05.827Z,91432.41
2018-02-25T07:53:56.863Z,91423.11
2018-02-25T07:54:45.908Z,91429.76
2018-02-25T07:55:34.985Z,91427.12
2018-02-25T07:56:24.047Z,91427.67
2018-02-25T07:57:13.238Z,91432.67
2018-02-25T07:58:02.317Z,91428.99
2018-02-25T07:58:51.377Z,91421.83
2018-02-25T07:59:40.440Z,91428.53
2018-02-25T08:00:29.505Z,91429.34
2018-02-25T08:01:18.669Z,91420.14
2018-02-25T08:02:07.740Z,91422.94
2018-02-25T08:02:59.923Z,91421.98
2018-02-25T08:03:48.986Z,91427.77
2018-02-25T08:04:38.031Z,91422.02
2018-02-25T08:05:27.108Z,91426.75
2018-02-25T08:06:16.166Z,91426.60
2018-02-25T08:07:05.238Z,91430.26
2018-02-25T08:07:54.290Z,91430.09
2018-02-25T08:08:43.392Z,91428.25
2018-02-25T08:09:32.447Z,91430.15
2018-02-25T08:10:21.663Z,91431.33
2018-02-25T08:11:10.722Z,91427.86
2018-02-25T08:11:59.860Z,91429.75
2018-02-25T08:12:48.926Z,91426.09
2018-02-25T08:13:38.035Z,91426.48
2018-02-25T08:14:27.109Z,91425.61
2018-02-25T08:15:16.212Z,91422.47
2018-02-25T08:16:05.331Z,91420.00
2018-02-25T08:16:54.454Z,91422.09
2018-02-25T08:17:43.536Z,91421.17
2018-02-25T08:18:32.605Z,91415.95
2018-02-25T08:19:21.769Z,91416.16
2018-02-25T08:20:10.994Z,91423.70
2018-02-25T08:21:00.060Z,91411.28
2018-02-25T08:21:49.110Z,91419.66
2018-02-25T08:22:38.187Z,91417.58
2018-02-25T08:23:27.281Z,91417.93
2018-02-25T08:24:16.366Z,91419.08
2018-02-25T08:25:05.431Z,91420.96
2018-02-25T08:25:54.531Z,91422.44
2018-02-25T08:26:43.599Z,91419.75
2018-02-25T08:27:32.690Z,91422.30
2018-02-25T08:28:21.755Z,91422.35
2018-02-25T08:29:10.864Z,91428.25
2018-02-25T08:29:59.933Z,91427.73
2018-02-25T08:30:48.978Z,91426.93
2018-02-25T08:31:38.070Z,91425.04
2018-02-25T08:32:27.129Z,91431.65
2018-02-25T08:33:16.209Z,91433.49
2018-02-25T08:34:05.303Z,91430.23
2018-02-25T08:34:54.369Z,91430.34
2018-02-25T08:35:43.418Z,91435.20
2018-02-25T08:36:32.461Z,91429.00
2018-02-25T08:37:21.664Z,91431.09
2018-02-25T08:38:10.707Z,91436.13
2018-02-25T08:38:59.772Z,91432.97
2018-02-25T08:39:48.837Z,91432.53
2018-02-25T08:40:37.973Z,91433.19
2018-02-25T08:41:27.100Z,91432.22
2018-02-25T08:42:16.156Z,91437.59
2018-02-25T08:43:05.242Z,91435.38
2018-02-25T08:43:54.291Z,91435.98
2018-02-25T08:44:43.343Z,91437.14
2018-02-25T08:45:34.838Z,91438.86
2018-02-25T08:46:23.890Z,91441.19
2018-02-25T08:47:12.938Z,91433.13
2018-02-25T08:48:02.022Z,91439.49
2018-02-25T08:48:51.297Z,91439.54
2018-02-25T08:49:40.374Z,91439.77
2018-02-25T08:50:29.434Z,91444.33
2018-02-25T08:51:18.509Z,91439.59
2018-02-25T08:52:07.628Z,91440.57
2018-02-25T08:52:56.695Z,91446.63
2018-02-25T08:53:45.751Z,91441.39
2018-02-25T08:54:34.881Z,91449.11
2018-02-25T08:55:23.971Z,91455.57
2018-02-25T08:56:13.133Z,91453.38
2018-02-25T08:57:02.234Z,91446.57
2018-02-25T08:57:51.306Z,91447.84
2018-02-25T08:58:40.358Z,91454.09
2018-02-25T08:59:29.428Z,91454.45
2018-02-25T09:00:18.479Z,91449.42
2018-02-25T09:01:07.530Z,91451.48
2018-02-25T09:01:56.660Z,91450.11
2018-02-25T09:02:45.841Z,91453.54
2018-02-25T09:03:34.918Z,91449.72
2018-02-25T09:04:23.990Z,91446.11
2018-02-25T09:05:13.053Z,91444.00
2018-02-25T09:06:02.100Z,91441.75
2018-02-25T09:06:51.176Z,91447.05
2018-02-25T09:07:40.250Z,91449.42
2018-02-25T09:08:29.562Z,91459.59
2018-02-25T09:09:18.624Z,91459.13
2018-02-25T09:10:07.678Z,91456.80
2018-02-25T09:10:56.938Z,91458.52
2018-02-25T09:11:45.993Z,91455.88
2018-02-25T09:12:35.080Z,91465.13
2018-02-25T09:13:24.140Z,91464.41
2018-02-25T09:14:13.256Z,91460.40
2018-02-25T09:15:02.327Z,91461.92
2018-02-25T09:15:51.430Z,91462.77
2018-02-25T09:16:40.476Z,91464.24
2018-02-25T09:17:29.518Z,91463.41
2018-02-25T09:18:18.584Z,91463.89
2018-02-25T09:19:07.646Z,91463.83
2018-02-25T09:19:56.841Z,91458.41
2018-02-25T09:20:45.896Z,91462.30
2018-02-25T09:21:36.012Z,91459.75
2018-02-25T09:22:25.074Z,91463.02
2018-02-25T09:23:14.951Z,91459.44
2018-02-25T09:24:04.047Z,91463.42
2018-02-25T09:24:59.075Z,91459.97
2018-02-25T09:25:48.182Z,91468.98
2018-02-25T09:26:38.998Z,91466.55
2018-02-25T09:27:30.092Z,91466.94
2018-02-25T09:28:20.453Z,91464.59
2018-02-25T09:29:11.659Z,91464.23
2018-02-25T09:30:02.950Z,91460.81
2018-02-25T09:30:53.040Z,91467.86
2018-02-25T09:31:42.124Z,91465.41
2018-02-25T09:32:34.324Z,91467.69
2018-02-25T09:33:23.414Z,91470.40
2018-02-25T09:34:13.332Z,91467.34
2018-02-25T09:35:02.390Z,91460.67
2018-02-25T09:35:51.559Z,91459.73
2018-02-25T09:36:40.627Z,91458.13
2018-02-25T09:37:29.664Z,91470.77